Time;durP1;ratioP1;P1;durP2;ratioP2;P2;SDS_P1;SDS_P2;PMS_P1;PMS_P2;Temp;Humidity;BMP_temperature;BMP_pressure;BME280_temperature;BME280_humidity;BME280_pressure;Samples;Min_cycle;Max_cycle;Signal;HPM_P1;HPM_P2
2022/07/20 04:16:26;;;;;;;5.67;3.80;;;;;;;18.13;72.89;100843.09;5557207;32;267572;-87
2022/07/20 04:19:30;;;;;;;7.37;3.35;;;;;;;18.17;72.35;100847.28;5543626;32;32559;-87
2022/07/20 04:22:32;;;;;;;6.80;3.42;;;;;;;18.34;67.58;100847.88;5544498;32;33376;-85
2022/07/20 04:25:35;;;;;;;4.40;3.00;;;;;;;18.49;65.83;100853.87;5543626;32;33935;-85
2022/07/20 04:28:38;;;;;;;4.55;3.70;;;;;;;18.62;67.16;100845.75;5557826;32;33337;-85
2022/07/20 04:31:40;;;;;;;4.12;3.10;;;;;;;18.72;66.71;100855.66;5557985;32;33743;-85
2022/07/20 04:34:43;;;;;;;4.47;3.08;;;;;;;18.87;66.24;100852.78;5543863;32;34186;-85
2022/07/20 04:37:53;;;;;;;9.00;3.10;;;;;;;19.03;65.75;100847.09;5543494;32;34664;-85
2022/07/20 04:40:55;;;;;;;5.82;3.37;;;;;;;19.13;66.20;100860.69;5534182;32;33637;-85
2022/07/20 04:43:58;;;;;;;4.32;3.35;;;;;;;19.25;65.96;100851.66;5522538;32;33298;-85
2022/07/20 04:47:01;;;;;;;6.60;2.87;;;;;;;19.34;64.99;100850.06;5521822;32;32272;-85
2022/07/20 04:50:05;;;;;;;8.02;2.90;;;;;;;19.43;64.59;100852.97;5524135;32;33871;-85
2022/07/20 04:53:07;;;;;;;9.23;3.08;;;;;;;19.53;63.76;100856.66;5522819;32;33973;-85
2022/07/20 04:56:10;;;;;;;9.27;2.97;;;;;;;19.56;64.05;100856.41;5522955;32;33796;-85
2022/07/20 04:59:14;;;;;;;4.32;3.05;;;;;;;19.64;61.62;100862.03;5522054;32;33664;-85
2022/07/20 05:02:17;;;;;;;7.03;2.80;;;;;;;19.78;60.49;100860.06;5524964;32;34029;-85
2022/07/20 05:05:19;;;;;;;8.38;3.40;;;;;;;20.05;58.86;100866.88;5523123;32;34263;-85
2022/07/20 05:08:22;;;;;;;6.22;3.05;;;;;;;20.13;57.37;100864.41;5524042;32;32247;-85
2022/07/20 05:11:29;;;;;;;13.70;3.25;;;;;;;20.22;57.11;100861.94;5522753;32;32778;-86
2022/07/20 05:14:33;;;;;;;7.05;2.67;;;;;;;20.36;57.11;100860.78;5522312;32;33384;-85
2022/07/20 05:17:36;;;;;;;6.70;3.12;;;;;;;20.62;56.76;100857.72;5523129;32;35042;-86
2022/07/20 05:20:39;;;;;;;6.80;3.20;;;;;;;20.68;56.35;100866.16;5522575;32;32674;-86
2022/07/20 05:23:41;;;;;;;7.40;3.20;;;;;;;20.84;56.63;100871.13;5523101;32;34306;-86
2022/07/20 05:26:44;;;;;;;9.48;3.37;;;;;;;21.03;55.22;100865.97;5515772;32;34844;-86
2022/07/20 05:29:48;;;;;;;4.28;2.87;;;;;;;21.19;53.46;100868.19;5512284;32;33978;-86
2022/07/20 05:32:51;;;;;;;17.17;3.90;;;;;;;21.74;53.00;100870.59;5510761;32;33830;-86
2022/07/20 05:35:53;;;;;;;10.75;3.22;;;;;;;23.50;48.81;100870.66;5511731;32;34843;-86
2022/07/20 05:38:56;;;;;;;5.25;3.00;;;;;;;26.18;40.64;100858.88;5520061;32;33924;-86
2022/07/20 05:42:00;;;;;;;11.55;3.00;;;;;;;27.95;36.57;100860.97;5523855;32;34146;-86
2022/07/20 05:45:03;;;;;;;6.03;2.72;;;;;;;29.54;33.29;100865.88;5516740;32;32647;-86
2022/07/20 05:48:06;;;;;;;7.43;2.75;;;;;;;30.57;31.63;100867.63;5510377;32;33638;-86
2022/07/20 05:51:09;;;;;;;8.82;2.92;;;;;;;31.92;29.35;100871.22;5508513;32;34941;-87
2022/07/20 05:54:12;;;;;;;5.97;3.10;;;;;;;31.74;29.73;100872.59;5516994;32;33638;-86
2022/07/20 05:57:15;;;;;;;5.47;2.75;;;;;;;32.07;28.65;100868.31;5528726;32;33355;-86
2022/07/20 06:00:17;;;;;;;5.35;2.40;;;;;;;31.59;28.67;100860.97;5528877;32;34512;-90
2022/07/20 06:03:20;;;;;;;5.15;2.70;;;;;;;31.71;28.13;100864.81;5517163;32;33533;-91
2022/07/20 06:06:23;;;;;;;7.68;2.50;;;;;;;33.21;26.39;100872.13;5515424;32;33990;-92
2022/07/20 06:09:26;;;;;;;6.07;2.70;;;;;;;35.60;23.86;100864.47;5514964;32;34164;-91
2022/07/20 06:12:30;;;;;;;5.68;2.67;;;;;;;36.86;22.01;100866.63;5509608;32;33138;-87
2022/07/20 06:15:33;;;;;;;6.60;2.90;;;;;;;37.13;21.62;100866.12;5510841;32;34815;-87
2022/07/20 06:18:36;;;;;;;10.30;2.90;;;;;;;36.94;21.03;100874.53;5512033;32;33531;-88
2022/07/20 06:21:57;;;;;;;5.32;2.55;;;;;;;34.77;23.54;100874.88;5514406;32;35174;-86
2022/07/20 06:25:00;;;;;;;4.72;2.45;;;;;;;33.44;24.36;100879.03;5510136;32;33776;-87
2022/07/20 06:28:03;;;;;;;5.78;2.70;;;;;;;36.03;21.78;100870.03;5510064;32;33876;-87
2022/07/20 06:31:06;;;;;;;12.57;2.85;;;;;;;37.34;19.96;100877.63;5509932;32;34680;-87
2022/07/20 06:34:10;;;;;;;6.70;2.55;;;;;;;38.30;19.01;100883.66;5511380;32;34013;-88
2022/07/20 06:37:12;;;;;;;6.45;2.30;;;;;;;39.14;18.08;100870.00;5517129;32;34560;-86
2022/07/20 06:40:15;;;;;;;8.82;2.75;;;;;;;38.50;19.07;100869.28;5513407;32;35287;-86
2022/07/20 06:43:18;;;;;;;8.38;2.90;;;;;;;37.32;19.99;100866.84;5525419;32;33910;-86
2022/07/20 06:46:21;;;;;;;7.97;2.75;;;;;;;35.59;22.18;100864.69;5521039;32;33800;-86
2022/07/20 06:49:25;;;;;;;4.10;2.30;;;;;;;34.02;24.00;100866.31;5509862;32;33907;-87
2022/07/20 06:52:30;;;;;;;9.90;3.25;;;;;;;33.36;25.37;100868.28;5512873;32;33887;-87
2022/07/20 06:55:32;;;;;;;16.80;3.03;;;;;;;33.09;25.71;100857.37;5528204;32;34197;-87
2022/07/20 06:58:35;;;;;;;7.53;3.08;;;;;;;32.75;26.29;100860.13;5528116;32;32587;-87
2022/07/20 07:01:38;;;;;;;10.45;3.20;;;;;;;31.58;28.32;100860.09;5528966;32;33996;-86
2022/07/20 07:04:41;;;;;;;4.57;2.58;;;;;;;30.98;29.65;100852.41;5510372;32;32612;-86
2022/07/20 07:07:44;;;;;;;10.85;2.90;;;;;;;32.21;28.04;100851.84;5517798;32;33508;-86
2022/07/20 07:10:47;;;;;;;5.87;3.00;;;;;;;32.44;27.85;100850.66;5515543;32;33904;-86
2022/07/20 07:13:49;;;;;;;9.18;3.20;;;;;;;32.68;28.54;100846.44;5529660;32;33930;-86
2022/07/20 07:16:53;;;;;;;9.90;3.17;;;;;;;32.82;27.39;100849.16;5532242;32;34501;-86
2022/07/20 07:19:58;;;;;;;4.18;2.83;;;;;;;33.40;27.53;100856.66;5531779;32;34395;-85
2022/07/20 07:23:01;;;;;;;6.60;2.92;;;;;;;33.41;26.52;100851.97;5521812;32;34678;-85
2022/07/20 07:26:03;;;;;;;5.72;3.10;;;;;;;33.51;26.94;100849.66;5509516;32;33439;-86
2022/07/20 07:29:07;;;;;;;12.70;3.42;;;;;;;33.82;27.00;100848.00;5525937;32;35291;-86
2022/07/20 07:32:10;;;;;;;9.20;3.53;;;;;;;33.80;26.82;100861.16;5530496;32;33816;-85
2022/07/20 07:35:13;;;;;;;10.55;3.15;;;;;;;33.39;26.18;100852.22;5529860;32;34985;-86
2022/07/20 07:38:16;;;;;;;6.35;3.05;;;;;;;33.56;26.59;100852.59;5524240;32;34408;-86
2022/07/20 07:41:19;;;;;;;5.65;2.70;;;;;;;33.66;26.83;100845.75;5530040;32;34203;-87
2022/07/20 07:44:21;;;;;;;14.02;3.05;;;;;;;34.10;26.05;100845.97;5536709;32;34454;-87
2022/07/20 07:47:24;;;;;;;4.22;2.83;;;;;;;34.40;25.47;100834.31;5528810;32;33792;-87
2022/07/20 07:50:27;;;;;;;10.15;2.60;;;;;;;34.52;25.32;100840.75;5532806;32;34657;-87
2022/07/20 07:53:30;;;;;;;6.05;3.08;;;;;;;34.50;26.04;100833.78;5520939;32;32772;-86
2022/07/20 07:56:33;;;;;;;5.70;2.70;;;;;;;34.21;25.04;100838.91;5511886;32;34716;-88
2022/07/20 07:59:36;;;;;;;12.55;3.15;;;;;;;34.72;24.60;100833.41;5522572;32;33355;-88
2022/07/20 08:02:39;;;;;;;8.00;2.80;;;;;;;34.98;25.08;100828.72;5524313;32;34255;-88
2022/07/20 08:05:42;;;;;;;6.22;3.10;;;;;;;34.67;24.81;100834.94;5511797;32;35153;-88
2022/07/20 08:08:45;;;;;;;10.35;2.78;;;;;;;34.95;24.48;100830.81;5510774;32;33570;-87
2022/07/20 08:11:48;;;;;;;5.97;3.10;;;;;;;35.56;23.22;100829.28;5510320;32;35213;-91
2022/07/20 08:14:52;;;;;;;14.65;2.80;;;;;;;35.54;23.80;100825.94;5509565;32;35007;-92
2022/07/20 08:17:55;;;;;;;15.25;3.12;;;;;;;35.98;22.42;100822.97;5508502;32;34438;-91
2022/07/20 08:20:58;;;;;;;7.10;3.22;;;;;;;35.81;22.74;100820.91;5507560;32;33734;-90
2022/07/20 08:24:03;;;;;;;13.50;2.97;;;;;;;35.79;21.57;100817.53;5509053;32;34794;-87
2022/07/20 08:27:06;;;;;;;12.40;3.00;;;;;;;36.26;22.01;100821.53;5510350;32;34013;-87
2022/07/20 08:30:09;;;;;;;8.32;2.90;;;;;;;36.55;21.83;100818.91;5510298;32;34495;-87
2022/07/20 08:33:32;;;;;;;8.23;2.60;;;;;;;37.06;21.56;100819.22;5508971;32;33872;-86
2022/07/20 08:36:35;;;;;;;10.27;2.70;;;;;;;37.16;20.75;100815.03;5507630;32;33844;-87
2022/07/20 08:39:40;;;;;;;13.32;2.80;;;;;;;37.81;20.08;100826.00;5508925;32;34803;-87
2022/07/20 08:42:44;;;;;;;8.65;3.03;;;;;;;38.54;19.89;100820.63;5511924;32;32705;-87
2022/07/20 08:45:48;;;;;;;9.57;2.90;;;;;;;38.66;20.00;100826.06;5512452;32;32129;-87
2022/07/20 08:48:51;;;;;;;13.10;2.70;;;;;;;39.19;19.50;100819.31;5508982;32;34298;-87
2022/07/20 08:51:54;;;;;;;9.73;2.87;;;;;;;39.52;18.94;100816.66;5508347;32;33890;-87
2022/07/20 08:54:57;;;;;;;6.95;2.40;;;;;;;39.69;17.93;100809.06;5526269;32;33837;-87
2022/07/20 08:57:59;;;;;;;12.25;3.17;;;;;;;39.68;17.15;100818.50;5520441;32;33304;-86
2022/07/20 09:01:05;;;;;;;7.78;2.58;;;;;;;39.60;17.94;100803.16;5524226;32;34198;-86
2022/07/20 09:04:12;;;;;;;8.35;2.33;;;;;;;39.55;16.86;100805.88;5531441;32;34364;-86
2022/07/20 09:07:15;;;;;;;7.20;2.47;;;;;;;39.57;16.56;100803.66;5527495;32;32341;-86
2022/07/20 09:10:23;;;;;;;8.57;2.70;;;;;;;39.30;17.17;100807.22;5527126;32;33949;-87
2022/07/20 09:13:28;;;;;;;6.60;2.42;;;;;;;39.53;17.81;100799.75;5528848;32;35160;-87
2022/07/20 09:16:40;;;;;;;7.65;2.40;;;;;;;39.69;16.92;100802.66;5534609;32;33669;-86
2022/07/20 09:19:54;;;;;;;7.80;2.28;;;;;;;40.67;16.91;100802.66;5524716;32;33895;-86
2022/07/20 09:23:06;;;;;;;4.00;2.00;;;;;;;40.99;15.74;100798.94;5522971;32;34423;-86
2022/07/20 09:26:17;;;;;;;6.70;2.20;;;;;;;41.71;14.85;100792.78;5529329;32;34866;-85
2022/07/20 09:29:20;;;;;;;6.93;2.83;;;;;;;41.19;14.42;100787.06;5528049;32;35216;-86
2022/07/20 09:32:23;;;;;;;5.20;2.25;;;;;;;41.34;14.77;100788.22;5514126;32;34555;-86
2022/07/20 09:35:32;;;;;;;9.90;2.30;;;;;;;41.25;14.83;100787.94;5515712;32;34029;-86
2022/07/20 09:38:39;;;;;;;4.97;2.25;;;;;;;41.45;14.67;100783.50;5512164;32;32598;-88
2022/07/20 09:41:44;;;;;;;3.50;2.33;;;;;;;40.21;15.59;100778.97;5512917;32;33857;-87
2022/07/20 09:44:47;;;;;;;6.37;1.90;;;;;;;41.40;14.53;100777.94;5524983;32;34976;-87
2022/07/20 09:48:25;;;;;;;7.03;2.10;;;;;;;41.91;14.37;100779.16;5525567;32;32967;-87
2022/07/20 09:51:43;;;;;;;7.00;2.42;;;;;;;42.92;13.48;100770.03;5527911;32;32554;-87
2022/07/20 09:54:46;;;;;;;7.28;2.28;;;;;;;43.98;12.78;100769.94;5517225;32;34235;-86
2022/07/20 09:57:50;;;;;;;6.40;2.20;;;;;;;42.25;13.46;100770.22;5510332;32;32703;-87
2022/07/20 10:00:53;;;;;;;2.80;2.12;;;;;;;42.40;13.34;100763.78;5510125;32;32852;-87
2022/07/20 10:03:58;;;;;;;8.18;2.45;;;;;;;42.03;13.62;100763.81;5517772;32;35199;-86
2022/07/20 10:07:01;;;;;;;2.80;2.20;;;;;;;42.19;14.25;100765.78;5513327;32;35307;-87
2022/07/20 10:10:05;;;;;;;7.00;2.37;;;;;;;42.27;13.72;100746.53;5516779;32;32943;-88
2022/07/20 10:13:08;;;;;;;3.42;2.78;;;;;;;41.79;14.12;100762.72;5522409;32;33743;-86
2022/07/20 10:16:27;;;;;;;9.82;2.50;;;;;;;42.22;14.03;100751.28;5521811;32;34825;-86
2022/07/20 10:19:45;;;;;;;12.70;2.70;;;;;;;42.61;13.60;100747.84;5530467;32;34582;-85
2022/07/20 10:23:14;;;;;;;5.75;2.40;;;;;;;42.19;13.84;100749.06;5516864;32;32956;-85
2022/07/20 10:26:25;;;;;;;5.18;2.55;;;;;;;41.45;14.21;100741.78;5527510;32;32437;-86
2022/07/20 10:29:35;;;;;;;7.55;3.12;;;;;;;41.59;14.23;100737.34;5532912;32;34127;-90
2022/07/20 10:32:53;;;;;;;10.23;2.53;;;;;;;42.06;14.11;100728.16;5529670;32;34077;-86
2022/07/20 10:36:41;;;;;;;6.40;3.37;;;;;;;42.68;13.15;100722.47;5536927;32;34352;-86
2022/07/20 10:39:57;;;;;;;4.18;2.62;;;;;;;42.58;13.96;100722.50;5521855;32;32456;-86
2022/07/20 10:43:09;;;;;;;7.00;2.60;;;;;;;44.04;12.37;100723.25;5454099;32;34452;-87
2022/07/20 10:46:32;;;;;;;4.22;2.62;;;;;;;41.43;13.95;100724.53;5534097;32;33821;-86
2022/07/20 10:50:02;;;;;;;3.95;2.70;;;;;;;41.64;14.45;100728.16;5539252;32;35349;-86
2022/07/20 10:53:10;;;;;;;5.50;2.37;;;;;;;41.44;14.30;100715.06;5540060;32;33897;-86
2022/07/20 10:56:13;;;;;;;;;;;;;;;40.21;15.12;100706.75;5529775;32;34889;-91
2022/07/20 10:59:16;;;;;;;5.70;2.78;;;;;;;41.16;14.67;100708.88;5536307;32;34414;-90
2022/07/20 11:02:20;;;;;;;4.32;2.60;;;;;;;41.45;14.16;100705.59;5563633;32;34190;-90
2022/07/20 11:05:23;;;;;;;8.32;2.87;;;;;;;41.65;14.49;100701.13;5537368;32;34872;-90
2022/07/20 11:08:26;;;;;;;8.23;2.62;;;;;;;40.32;14.94;100698.50;5536514;32;34252;-86
2022/07/20 11:11:32;;;;;;;4.72;2.72;;;;;;;40.53;15.45;100691.94;5543632;32;34274;-87
2022/07/20 11:14:52;;;;;;;9.60;2.85;;;;;;;41.32;14.38;100696.69;5522838;32;33667;-86
2022/07/20 11:17:55;;;;;;;7.72;2.60;;;;;;;40.66;14.23;100687.84;5526005;32;32541;-86
2022/07/20 11:21:07;;;;;;;7.35;2.70;;;;;;;39.98;15.10;100691.34;5522453;32;34322;-86
2022/07/20 11:24:29;;;;;;;9.45;2.87;;;;;;;39.86;15.90;100684.00;5509005;32;34319;-86
2022/07/20 11:27:32;;;;;;;4.90;2.50;;;;;;;39.30;15.66;100673.25;5515341;32;33108;-86
2022/07/20 11:30:37;;;;;;;4.60;2.40;;;;;;;39.94;16.30;100671.59;5537894;32;32692;-86
2022/07/20 11:33:44;;;;;;;5.25;2.55;;;;;;;39.05;16.65;100671.88;5535775;32;33972;-86
2022/07/20 11:36:49;;;;;;;4.80;2.40;;;;;;;38.45;16.18;100672.50;5533197;32;35174;-86
2022/07/20 11:39:52;;;;;;;2.95;2.15;;;;;;;38.94;15.67;100674.53;5539740;32;33736;-87
2022/07/20 11:43:10;;;;;;;2.78;2.15;;;;;;;37.77;16.09;100672.59;5547619;32;34961;-87
2022/07/20 11:46:22;;;;;;;7.43;2.28;;;;;;;38.01;17.20;100665.78;5529729;32;35129;-87
2022/07/20 11:49:26;;;;;;;4.72;2.40;;;;;;;39.18;15.65;100665.94;5570835;26;34409;-88
2022/07/20 11:52:42;;;;;;;4.12;2.30;;;;;;;39.28;15.53;100662.41;5560645;32;34738;-88
2022/07/20 11:55:45;;;;;;;4.15;2.37;;;;;;;38.68;16.03;100657.63;5561439;32;33883;-88
2022/07/20 11:58:50;;;;;;;4.00;2.08;;;;;;;38.60;15.62;100658.03;5553714;32;33861;-88
2022/07/20 12:01:56;;;;;;;2.33;1.98;;;;;;;38.69;15.85;100642.66;5562906;32;34277;-87
2022/07/20 12:05:00;;;;;;;6.40;2.37;;;;;;;38.50;16.12;100644.06;5586448;26;35201;-88
2022/07/20 12:08:13;;;;;;;3.42;2.30;;;;;;;37.76;16.30;100635.81;5571093;31;33407;-92
2022/07/20 12:11:16;;;;;;;5.43;2.50;;;;;;;37.35;16.64;100642.28;5562930;31;33262;-89
2022/07/20 12:14:39;;;;;;;5.75;2.40;;;;;;;37.72;16.84;100632.72;5582233;31;33820;-89
2022/07/20 12:17:59;;;;;;;3.97;2.50;;;;;;;37.30;16.92;100631.13;5557812;31;33181;-88
2022/07/20 12:21:05;;;;;;;5.62;2.50;;;;;;;37.65;16.74;100625.66;5565186;31;32410;-88
2022/07/20 12:24:08;;;;;;;8.52;2.45;;;;;;;36.99;17.26;100625.03;5573835;31;32271;-88
2022/07/20 12:27:13;;;;;;;5.68;2.08;;;;;;;37.16;17.25;100627.03;5572258;31;32614;-87
2022/07/20 12:30:34;;;;;;;5.70;2.15;;;;;;;37.29;17.54;100621.19;5577049;31;33967;-87
2022/07/20 12:33:37;;;;;;;2.53;2.25;;;;;;;37.10;17.58;100612.25;5565772;31;33179;-87
2022/07/20 12:36:45;;;;;;;3.83;2.47;;;;;;;37.08;17.30;100606.97;5574060;31;31749;-87
2022/07/20 12:39:53;;;;;;;2.70;2.42;;;;;;;36.66;17.31;100623.84;5590166;31;34278;-88
2022/07/20 12:42:56;;;;;;;4.75;2.45;;;;;;;36.62;17.69;100614.38;5588781;31;36447;-87
2022/07/20 12:46:06;;;;;;;4.70;2.40;;;;;;;36.75;17.62;100605.78;5594777;31;34802;-88
2022/07/20 12:49:18;;;;;;;3.97;2.50;;;;;;;36.81;17.42;100607.56;5578199;31;34490;-87
2022/07/20 12:52:21;;;;;;;5.07;2.58;;;;;;;36.67;17.60;100609.81;5584744;31;33947;-86
2022/07/20 12:55:24;;;;;;;5.12;2.53;;;;;;;35.80;18.46;100600.41;5580727;31;33653;-87
2022/07/20 12:58:27;;;;;;;8.10;2.60;;;;;;;36.34;17.70;100616.00;5560379;31;32523;-86
2022/07/20 13:01:30;;;;;;;9.02;2.20;;;;;;;36.11;17.49;100596.47;5573772;31;34952;-87
2022/07/20 13:04:33;;;;;;;4.57;2.47;;;;;;;36.05;17.64;100594.66;5585881;31;33910;-88
2022/07/20 13:07:38;;;;;;;5.53;2.40;;;;;;;36.42;18.28;100593.50;5573706;31;33504;-87
2022/07/20 13:10:40;;;;;;;2.50;2.28;;;;;;;36.53;17.53;100598.16;5589162;31;34213;-89
2022/07/20 13:13:43;;;;;;;2.72;1.95;;;;;;;36.67;17.63;100584.94;5572262;31;33890;-90
2022/07/20 13:16:49;;;;;;;2.55;2.22;;;;;;;36.39;17.24;100591.22;5575981;31;35239;-92
2022/07/20 13:19:52;;;;;;;5.18;2.03;;;;;;;36.55;17.42;100584.12;5562802;31;32882;-92
2022/07/20 13:22:55;;;;;;;5.18;2.45;;;;;;;36.72;17.24;100583.34;5564176;32;33259;-88
2022/07/20 13:25:57;;;;;;;2.78;2.50;;;;;;;36.24;17.27;100589.81;5562576;32;33437;-88
2022/07/20 13:29:11;;;;;;;4.68;2.30;;;;;;;36.38;17.40;100589.53;5555771;32;32491;-87
2022/07/20 13:32:17;;;;;;;5.03;2.05;;;;;;;35.83;18.21;100581.44;5553869;32;33066;-87
2022/07/20 13:35:20;;;;;;;3.83;2.22;;;;;;;35.88;17.59;100578.81;5569189;32;34843;-86
2022/07/20 13:38:23;;;;;;;5.53;2.35;;;;;;;36.03;17.50;100580.22;5554126;32;32349;-87
2022/07/20 13:41:26;;;;;;;4.62;2.62;;;;;;;36.15;17.18;100571.97;5568014;32;35190;-87
2022/07/20 13:44:29;;;;;;;4.25;2.35;;;;;;;36.18;17.58;100577.00;5568218;32;34566;-87
2022/07/20 13:47:34;;;;;;;6.03;2.30;;;;;;;36.25;17.64;100569.41;5553881;32;32760;-87
2022/07/20 13:50:37;;;;;;;4.90;2.60;;;;;;;36.55;18.22;100559.25;5567891;32;35262;-87
2022/07/20 13:53:59;;;;;;;6.00;2.25;;;;;;;36.22;17.08;100558.03;5569338;31;33812;-86
2022/07/20 13:57:03;;;;;;;4.22;2.42;;;;;;;36.42;17.34;100552.09;5590686;31;34596;-87
2022/07/20 14:00:08;;;;;;;6.57;2.80;;;;;;;36.41;16.99;100547.66;5574276;31;32667;-87
2022/07/20 14:03:13;;;;;;;3.20;2.40;;;;;;;36.20;17.23;100554.69;5574560;31;33173;-87
2022/07/20 14:06:16;;;;;;;6.45;2.35;;;;;;;36.42;17.38;100546.56;5566329;31;32887;-87
2022/07/20 14:09:19;;;;;;;2.50;2.22;;;;;;;36.01;17.73;100547.34;5554614;32;35003;-87
2022/07/20 14:12:22;;;;;;;2.45;2.20;;;;;;;35.86;17.87;100545.09;5569259;32;34405;-86
2022/07/20 14:15:24;;;;;;;4.72;2.62;;;;;;;35.98;18.15;100541.47;5554054;32;32986;-87
2022/07/20 14:18:28;;;;;;;3.60;2.40;;;;;;;35.92;17.35;100543.28;5572014;31;34116;-87
2022/07/20 14:21:30;;;;;;;4.62;2.53;;;;;;;36.29;17.41;100539.38;5555794;32;32728;-87
2022/07/20 14:24:34;;;;;;;10.45;2.30;;;;;;;36.01;17.29;100536.31;5554791;32;34145;-87
2022/07/20 14:27:37;;;;;;;4.90;2.30;;;;;;;35.91;17.68;100530.59;5554782;32;32287;-88
2022/07/20 14:30:40;;;;;;;6.30;2.45;;;;;;;36.20;17.80;100529.81;5554770;32;34031;-86
2022/07/20 14:33:43;;;;;;;5.22;2.75;;;;;;;36.36;17.55;100530.97;5569353;32;33801;-87
2022/07/20 14:36:45;;;;;;;4.10;2.45;;;;;;;36.07;17.65;100529.00;5557896;31;34118;-87
2022/07/20 14:39:48;;;;;;;4.43;2.30;;;;;;;36.55;17.31;100528.87;5559369;31;33438;-87
2022/07/20 14:42:51;;;;;;;6.03;2.62;;;;;;;36.33;17.55;100520.41;5556967;31;32938;-87
2022/07/20 14:45:54;;;;;;;2.67;2.42;;;;;;;36.43;17.90;100520.62;5587501;31;33913;-87
2022/07/20 14:48:57;;;;;;;5.12;2.50;;;;;;;36.49;17.32;100516.03;5571467;31;34150;-87
2022/07/20 14:51:59;;;;;;;2.95;2.42;;;;;;;36.36;17.50;100512.50;5578557;31;35155;-87
2022/07/20 14:55:03;;;;;;;2.30;2.10;;;;;;;35.59;17.80;100511.66;5554931;32;32611;-87
2022/07/20 14:58:06;;;;;;;7.60;2.70;;;;;;;34.96;18.80;100506.53;5553229;32;35102;-88
2022/07/20 15:01:08;;;;;;;3.28;2.65;;;;;;;35.06;18.33;100504.03;5554743;32;33161;-88
2022/07/20 15:04:12;;;;;;;3.05;2.70;;;;;;;35.21;18.35;100500.81;5565409;32;34375;-87
2022/07/20 15:07:16;;;;;;;5.25;2.50;;;;;;;35.45;18.16;100498.06;5569847;32;32844;-88
2022/07/20 15:10:19;;;;;;;4.55;2.47;;;;;;;35.40;18.14;100495.22;5561272;32;33976;-91
2022/07/20 15:13:22;;;;;;;5.30;2.35;;;;;;;35.37;18.57;100497.59;5568402;32;34249;-92
